Time;durP1;ratioP1;P1;durP2;ratioP2;P2;SDS_P1;SDS_P2;PMS_P1;PMS_P2;Temp;Humidity;BMP_temperature;BMP_pressure;BME280_temperature;BME280_humidity;BME280_pressure;Samples;Min_cycle;Max_cycle;Signal;HPM_P1;HPM_P2
2023/07/14 00:01:16;;;;;;;;;24.00;22.33;;;;;;;;5068624;28;45318;-77
2023/07/14 00:03:41;;;;;;;;;29.00;28.33;;;;;;;;5068675;28;45323;-78
2023/07/14 00:06:08;;;;;;;;;27.00;26.67;;;;;;;;5067359;28;45359;-78
2023/07/14 00:08:33;;;;;;;;;26.33;25.33;;;;;;;;5067160;28;45587;-77
2023/07/14 00:10:59;;;;;;;;;27.00;25.33;;;;;;;;5050469;28;45342;-77
2023/07/14 00:13:24;;;;;;;;;26.67;25.33;;;;;;;;5050706;28;45338;-77
2023/07/14 00:15:49;;;;;;;;;22.00;22.00;;;;;;;;5068907;28;45293;-77
2023/07/14 00:18:18;;;;;;;;;26.67;24.67;;;;;;;;5069384;28;45489;-77
2023/07/14 00:20:43;;;;;;;;;25.33;24.33;;;;;;;;5066547;28;45325;-77
2023/07/14 00:23:11;;;;;;;;;26.67;24.67;;;;;;;;5066007;28;45341;-77
2023/07/14 00:25:37;;;;;;;;;26.33;26.33;;;;;;;;5068767;28;45622;-78
2023/07/14 00:28:03;;;;;;;;;24.00;23.67;;;;;;;;5049222;28;47019;-77
2023/07/14 00:30:28;;;;;;;;;29.67;28.33;;;;;;;;5105858;27;45271;-77
2023/07/14 00:32:54;;;;;;;;;26.00;25.33;;;;;;;;5091176;27;45448;-77
2023/07/14 00:35:27;;;;;;;;;24.00;24.00;;;;;;;;5109180;27;45474;-77
2023/07/14 00:37:54;;;;;;;;;23.67;22.67;;;;;;;;5110332;27;45335;-79
2023/07/14 00:40:21;;;;;;;;;25.00;23.00;;;;;;;;5089580;27;45402;-77
2023/07/14 00:42:50;;;;;;;;;26.00;25.33;;;;;;;;5109065;27;45343;-77
2023/07/14 00:45:17;;;;;;;;;24.33;24.33;;;;;;;;5108838;27;45479;-77
2023/07/14 00:47:43;;;;;;;;;26.00;24.67;;;;;;;;5102035;27;45804;-77
2023/07/14 00:50:16;;;;;;;;;28.33;27.33;;;;;;;;5087278;28;45601;-77
2023/07/14 00:52:42;;;;;;;;;28.00;27.67;;;;;;;;5086204;28;45268;-77
2023/07/14 00:55:37;;;;;;;;;27.67;27.00;;;;;;;;5084827;28;45445;-77
2023/07/14 00:58:04;;;;;;;;;27.00;26.67;;;;;;;;5046255;28;46231;-77
2023/07/14 01:00:30;;;;;;;;;26.00;24.00;;;;;;;;5068440;28;45364;-77
2023/07/14 01:03:02;;;;;;;;;24.33;23.67;;;;;;;;5088252;28;45378;-77
2023/07/14 01:05:27;;;;;;;;;27.67;26.33;;;;;;;;5088256;28;45445;-77
2023/07/14 01:07:54;;;;;;;;;23.00;23.00;;;;;;;;5087665;28;45353;-78
2023/07/14 01:10:22;;;;;;;;;24.67;24.00;;;;;;;;5088712;28;45323;-77
2023/07/14 01:12:53;;;;;;;;;23.33;23.33;;;;;;;;5088825;28;45760;-77
2023/07/14 01:15:18;;;;;;;;;22.67;22.67;;;;;;;;5069442;28;47329;-77
2023/07/14 01:17:46;;;;;;;;;25.33;24.33;;;;;;;;5069151;28;48498;-78
2023/07/14 01:20:11;;;;;;;;;20.00;20.00;;;;;;;;5069655;28;45921;-77
2023/07/14 01:22:39;;;;;;;;;23.67;22.67;;;;;;;;5089591;28;45316;-77
2023/07/14 01:25:08;;;;;;;;;25.00;23.67;;;;;;;;5067972;28;46277;-77
2023/07/14 01:27:33;;;;;;;;;23.00;22.00;;;;;;;;5085817;28;45301;-78
2023/07/14 01:29:59;;;;;;;;;23.00;22.33;;;;;;;;5099480;27;45413;-77
2023/07/14 01:32:31;;;;;;;;;23.00;22.67;;;;;;;;5105494;27;45353;-78
2023/07/14 01:34:56;;;;;;;;;24.33;23.67;;;;;;;;5105829;27;45251;-77
2023/07/14 01:37:22;;;;;;;;;18.67;18.00;;;;;;;;5107637;27;46297;-77
2023/07/14 01:39:48;;;;;;;;;26.33;23.67;;;;;;;;5108980;27;45449;-77
2023/07/14 01:42:13;;;;;;;;;22.33;22.00;;;;;;;;5088287;27;45309;-77
2023/07/14 01:44:39;;;;;;;;;20.67;19.00;;;;;;;;5105053;27;45322;-77
2023/07/14 01:47:07;;;;;;;;;21.00;18.00;;;;;;;;5088274;27;48148;-77
2023/07/14 01:49:36;;;;;;;;;18.67;18.67;;;;;;;;5088076;27;45382;-77
2023/07/14 01:52:03;;;;;;;;;21.00;21.00;;;;;;;;5087425;27;45269;-77
2023/07/14 01:54:35;;;;;;;;;25.33;22.67;;;;;;;;5107516;27;45247;-78
2023/07/14 01:57:02;;;;;;;;;21.67;19.00;;;;;;;;5109371;27;46768;-77
2023/07/14 01:59:31;;;;;;;;;19.00;19.00;;;;;;;;5110386;27;45344;-77
2023/07/14 02:01:59;;;;;;;;;21.33;19.00;;;;;;;;5108962;27;45328;-77
2023/07/14 02:04:26;;;;;;;;;19.33;19.00;;;;;;;;5111302;27;45509;-77
2023/07/14 02:06:52;;;;;;;;;20.00;19.00;;;;;;;;5089304;27;47535;-78
2023/07/14 02:09:19;;;;;;;;;20.33;20.33;;;;;;;;5088046;27;45347;-77
2023/07/14 02:11:47;;;;;;;;;20.67;20.00;;;;;;;;5089910;27;45331;-77
2023/07/14 02:14:16;;;;;;;;;19.00;17.33;;;;;;;;5108208;27;45354;-77
2023/07/14 02:16:42;;;;;;;;;22.67;21.33;;;;;;;;5090742;27;47196;-77
2023/07/14 02:19:14;;;;;;;;;22.67;22.00;;;;;;;;5108513;27;45434;-77
2023/07/14 02:21:41;;;;;;;;;24.33;22.00;;;;;;;;5107708;27;45337;-77
2023/07/14 02:24:09;;;;;;;;;18.67;18.00;;;;;;;;5090072;27;46266;-77
2023/07/14 02:26:40;;;;;;;;;18.00;18.00;;;;;;;;5107577;27;45746;-77
2023/07/14 02:29:09;;;;;;;;;22.33;21.00;;;;;;;;5099903;27;45315;-77
2023/07/14 02:31:55;;;;;;;;;19.33;17.67;;;;;;;;5067820;28;45308;-78
2023/07/14 02:34:20;;;;;;;;;21.33;20.00;;;;;;;;5087086;28;45542;-77
2023/07/14 02:36:54;;;;;;;;;18.67;17.67;;;;;;;;5086893;28;45425;-77
2023/07/14 02:39:20;;;;;;;;;20.67;18.33;;;;;;;;5086287;28;45280;-77
2023/07/14 02:41:46;;;;;;;;;18.67;18.67;;;;;;;;5084657;28;45413;-77
2023/07/14 02:44:13;;;;;;;;;18.33;18.00;;;;;;;;5085953;28;45309;-77
2023/07/14 02:46:42;;;;;;;;;19.67;16.33;;;;;;;;5085014;28;46008;-77
2023/07/14 02:49:08;;;;;;;;;19.00;18.67;;;;;;;;5068115;28;45744;-77
2023/07/14 02:51:33;;;;;;;;;19.00;18.00;;;;;;;;5086754;28;45315;-76
2023/07/14 02:53:58;;;;;;;;;18.00;17.00;;;;;;;;5069004;28;46305;-77
2023/07/14 02:56:23;;;;;;;;;16.33;15.67;;;;;;;;5068171;28;47175;-77
2023/07/14 02:58:49;;;;;;;;;22.67;20.00;;;;;;;;5067798;28;45807;-77
2023/07/14 03:01:15;;;;;;;;;12.67;12.00;;;;;;;;5086669;28;45378;-77
2023/07/14 03:03:40;;;;;;;;;16.00;15.00;;;;;;;;5087627;28;45574;-76
2023/07/14 03:06:06;;;;;;;;;19.67;17.67;;;;;;;;5087572;28;45287;-77
2023/07/14 03:08:31;;;;;;;;;18.00;18.00;;;;;;;;5069326;28;45669;-77
2023/07/14 03:10:59;;;;;;;;;14.33;13.33;;;;;;;;5087796;28;45283;-76
2023/07/14 03:13:25;;;;;;;;;18.00;18.00;;;;;;;;5084795;28;45327;-77
2023/07/14 03:15:50;;;;;;;;;18.00;17.00;;;;;;;;5084107;28;45195;-77
2023/07/14 03:18:15;;;;;;;;;16.67;16.67;;;;;;;;5064097;28;45369;-77
2023/07/14 03:20:41;;;;;;;;;16.00;16.00;;;;;;;;5083364;28;45352;-77
2023/07/14 03:23:07;;;;;;;;;15.33;15.33;;;;;;;;5084180;28;45590;-77
2023/07/14 03:25:33;;;;;;;;;16.00;16.00;;;;;;;;5084365;28;45495;-76
2023/07/14 03:27:58;;;;;;;;;20.00;19.33;;;;;;;;5065765;28;45340;-77
2023/07/14 03:30:23;;;;;;;;;17.33;15.67;;;;;;;;5083042;27;45261;-77
2023/07/14 03:32:50;;;;;;;;;14.00;14.00;;;;;;;;5103779;27;45328;-77
2023/07/14 03:35:18;;;;;;;;;17.00;16.33;;;;;;;;5103743;27;46253;-78
2023/07/14 03:37:44;;;;;;;;;17.00;14.67;;;;;;;;5085707;27;45295;-77
2023/07/14 03:40:09;;;;;;;;;17.67;16.67;;;;;;;;5084994;27;45258;-77
2023/07/14 03:42:35;;;;;;;;;17.33;17.33;;;;;;;;5103402;27;45228;-77
2023/07/14 03:45:00;;;;;;;;;15.00;15.00;;;;;;;;5104865;27;46389;-77
2023/07/14 03:47:26;;;;;;;;;17.33;16.00;;;;;;;;5103564;27;45261;-77
2023/07/14 03:49:51;;;;;;;;;16.00;16.00;;;;;;;;5103499;27;45253;-77
2023/07/14 03:52:16;;;;;;;;;16.00;16.00;;;;;;;;5103341;27;45887;-77
2023/07/14 03:54:41;;;;;;;;;16.33;16.00;;;;;;;;5084838;27;48406;-77
2023/07/14 03:57:06;;;;;;;;;17.00;17.00;;;;;;;;5102810;27;45338;-77
2023/07/14 03:59:32;;;;;;;;;20.00;17.00;;;;;;;;5106115;27;45535;-77
2023/07/14 04:01:57;;;;;;;;;15.33;13.67;;;;;;;;5090066;27;46281;-77
2023/07/14 04:04:22;;;;;;;;;14.67;14.67;;;;;;;;5106936;27;46115;-77
2023/07/14 04:06:47;;;;;;;;;19.67;17.00;;;;;;;;5088462;27;45417;-77
2023/07/14 04:09:13;;;;;;;;;15.33;15.00;;;;;;;;5106254;27;45414;-77
2023/07/14 04:11:38;;;;;;;;;20.00;20.00;;;;;;;;5105896;27;45413;-77
2023/07/14 04:14:04;;;;;;;;;15.33;13.33;;;;;;;;5087149;27;48283;-77
2023/07/14 04:16:30;;;;;;;;;18.00;15.33;;;;;;;;5105693;27;45872;-77
2023/07/14 04:18:55;;;;;;;;;13.33;13.00;;;;;;;;5105880;27;45439;-77
2023/07/14 04:21:24;;;;;;;;;16.00;14.67;;;;;;;;5106174;27;45343;-77
2023/07/14 04:23:49;;;;;;;;;16.33;15.33;;;;;;;;5086490;27;48217;-77
2023/07/14 04:26:15;;;;;;;;;15.33;14.00;;;;;;;;5104132;27;45322;-77
2023/07/14 04:28:40;;;;;;;;;14.33;13.00;;;;;;;;5100302;27;45588;-77
2023/07/14 04:31:05;;;;;;;;;10.67;10.67;;;;;;;;5064899;28;46079;-77
2023/07/14 04:33:30;;;;;;;;;11.33;10.33;;;;;;;;5083507;28;46273;-78
2023/07/14 04:35:56;;;;;;;;;11.00;10.00;;;;;;;;5083387;28;45307;-77
2023/07/14 04:38:22;;;;;;;;;10.00;10.00;;;;;;;;5065439;28;45338;-78
2023/07/14 04:40:47;;;;;;;;;11.00;11.00;;;;;;;;5064471;28;45981;-78
2023/07/14 04:43:13;;;;;;;;;9.67;8.67;;;;;;;;5064432;28;46849;-78
2023/07/14 04:45:39;;;;;;;;;11.00;11.00;;;;;;;;5083660;28;45310;-77
2023/07/14 04:48:05;;;;;;;;;11.33;11.00;;;;;;;;5065588;28;45316;-77
2023/07/14 04:50:31;;;;;;;;;11.67;11.33;;;;;;;;5065331;28;45786;-78
2023/07/14 04:52:56;;;;;;;;;10.00;10.00;;;;;;;;5065903;28;48371;-78
2023/07/14 04:55:22;;;;;;;;;7.33;7.00;;;;;;;;5083152;28;45267;-78
2023/07/14 04:57:48;;;;;;;;;12.00;11.67;;;;;;;;5083077;28;45301;-78
2023/07/14 05:00:13;;;;;;;;;8.33;8.33;;;;;;;;5083953;28;45309;-78
2023/07/14 05:02:39;;;;;;;;;10.33;10.33;;;;;;;;5083639;28;45494;-78
2023/07/14 05:05:09;;;;;;;;;9.67;8.33;;;;;;;;5065974;28;45473;-78
2023/07/14 05:07:34;;;;;;;;;10.00;9.00;;;;;;;;5086099;28;45385;-78
2023/07/14 05:09:59;;;;;;;;;10.67;9.00;;;;;;;;5083608;28;45473;-78
2023/07/14 05:12:25;;;;;;;;;8.67;8.67;;;;;;;;5084886;28;45306;-78
2023/07/14 05:14:50;;;;;;;;;7.00;7.00;;;;;;;;5085526;28;45489;-78
2023/07/14 05:17:15;;;;;;;;;8.00;8.00;;;;;;;;5064916;28;45350;-78
2023/07/14 05:19:40;;;;;;;;;8.00;6.67;;;;;;;;5065727;28;47255;-78
2023/07/14 05:22:06;;;;;;;;;8.00;8.00;;;;;;;;5081861;28;45431;-75
2023/07/14 05:24:31;;;;;;;;;7.67;7.67;;;;;;;;5063424;28;45173;-76
2023/07/14 05:26:56;;;;;;;;;7.00;7.00;;;;;;;;5080920;28;45421;-77
2023/07/14 05:29:21;;;;;;;;;8.67;8.00;;;;;;;;5090304;27;45377;-76
2023/07/14 05:31:47;;;;;;;;;5.00;5.00;;;;;;;;5104739;27;45565;-77
2023/07/14 05:34:12;;;;;;;;;11.33;7.67;;;;;;;;5103401;27;45345;-77
2023/07/14 05:36:38;;;;;;;;;7.00;7.00;;;;;;;;5105243;27;45141;-77
2023/07/14 05:39:03;;;;;;;;;6.67;6.67;;;;;;;;5102812;27;45275;-78
2023/07/14 05:41:28;;;;;;;;;9.00;8.33;;;;;;;;5084150;27;47487;-76
2023/07/14 05:43:53;;;;;;;;;7.00;7.00;;;;;;;;5102344;27;45333;-78
2023/07/14 05:46:18;;;;;;;;;6.00;6.00;;;;;;;;5084173;27;45280;-77
2023/07/14 05:48:43;;;;;;;;;5.00;5.00;;;;;;;;5102395;27;45229;-78
2023/07/14 05:51:13;;;;;;;;;6.00;6.00;;;;;;;;5084459;27;46924;-78
2023/07/14 05:53:38;;;;;;;;;8.00;6.67;;;;;;;;5100643;27;45286;-77
2023/07/14 05:56:04;;;;;;;;;5.00;5.00;;;;;;;;5084666;28;45564;-80
2023/07/14 05:58:29;;;;;;;;;10.00;8.00;;;;;;;;5083010;28;45440;-76
2023/07/14 06:00:54;;;;;;;;;6.00;6.00;;;;;;;;5085408;28;46356;-78
2023/07/14 06:03:19;;;;;;;;;8.00;8.00;;;;;;;;5081447;28;45350;-77
2023/07/14 06:05:46;;;;;;;;;7.00;7.00;;;;;;;;5080346;28;45421;-76
2023/07/14 06:08:11;;;;;;;;;7.33;7.33;;;;;;;;5063044;28;46691;-76
2023/07/14 06:10:36;;;;;;;;;7.33;7.33;;;;;;;;5082134;28;46308;-75
2023/07/14 06:13:02;;;;;;;;;8.33;6.33;;;;;;;;5081264;28;45437;-76
2023/07/14 06:15:28;;;;;;;;;9.00;7.33;;;;;;;;5069638;28;45293;-79
2023/07/14 06:17:53;;;;;;;;;8.00;8.00;;;;;;;;5090209;28;45309;-80
2023/07/14 06:20:19;;;;;;;;;6.67;6.67;;;;;;;;5089925;28;46193;-77
2023/07/14 06:22:44;;;;;;;;;8.00;6.33;;;;;;;;5093155;28;45374;-78
2023/07/14 06:25:10;;;;;;;;;7.67;6.33;;;;;;;;5087829;28;44754;-77
2023/07/14 06:27:35;;;;;;;;;7.00;7.00;;;;;;;;5090443;28;45306;-76
2023/07/14 06:30:00;;;;;;;;;6.67;6.67;;;;;;;;5069141;28;47458;-76
2023/07/14 06:32:26;;;;;;;;;8.33;8.33;;;;;;;;5071675;28;45293;-77
2023/07/14 06:34:51;;;;;;;;;7.33;6.67;;;;;;;;5084607;28;45268;-76
2023/07/14 06:37:16;;;;;;;;;5.33;5.33;;;;;;;;5088556;28;45216;-75
2023/07/14 06:39:42;;;;;;;;;7.00;6.67;;;;;;;;5089485;28;45304;-75
2023/07/14 06:42:07;;;;;;;;;5.33;5.00;;;;;;;;5087532;28;45219;-77
2023/07/14 06:44:33;;;;;;;;;5.33;5.33;;;;;;;;5089832;28;45465;-78
2023/07/14 06:46:58;;;;;;;;;8.67;8.00;;;;;;;;5085225;28;45326;-77
2023/07/14 06:49:23;;;;;;;;;6.33;6.33;;;;;;;;5072042;28;46979;-77
2023/07/14 06:51:48;;;;;;;;;7.00;7.00;;;;;;;;5073279;28;44906;-78
2023/07/14 06:54:14;;;;;;;;;7.00;6.00;;;;;;;;5086852;28;45419;-77
2023/07/14 06:56:39;;;;;;;;;8.33;6.33;;;;;;;;5084201;28;45424;-79
2023/07/14 06:59:04;;;;;;;;;5.33;5.33;;;;;;;;5081778;28;45343;-78
2023/07/14 07:01:29;;;;;;;;;8.00;8.00;;;;;;;;5087988;28;45280;-78
2023/07/14 07:03:54;;;;;;;;;6.00;5.33;;;;;;;;5064711;28;45512;-77
2023/07/14 07:06:20;;;;;;;;;6.00;6.00;;;;;;;;5065078;28;46081;-77
2023/07/14 07:08:46;;;;;;;;;8.33;8.00;;;;;;;;5082829;28;45429;-76
2023/07/14 07:11:11;;;;;;;;;6.00;5.00;;;;;;;;5080537;28;45568;-75
2023/07/14 07:13:37;;;;;;;;;5.00;5.00;;;;;;;;5080352;28;45332;-75
2023/07/14 07:16:02;;;;;;;;;6.00;5.33;;;;;;;;5060083;28;46091;-75
2023/07/14 07:18:28;;;;;;;;;5.33;5.33;;;;;;;;5074507;28;45355;-75
2023/07/14 07:20:54;;;;;;;;;4.00;4.00;;;;;;;;5080297;28;45219;-75
2023/07/14 07:23:19;;;;;;;;;7.00;7.00;;;;;;;;5060682;28;45292;-75
2023/07/14 07:25:48;;;;;;;;;5.33;4.67;;;;;;;;5080783;28;45272;-75
2023/07/14 07:28:14;;;;;;;;;6.00;6.00;;;;;;;;5083274;28;45313;-75
2023/07/14 07:30:39;;;;;;;;;12.33;11.33;;;;;;;;5104135;27;45305;-79
2023/07/14 07:33:04;;;;;;;;;6.67;6.67;;;;;;;;5062821;28;45370;-76
2023/07/14 07:35:29;;;;;;;;;4.00;4.00;;;;;;;;5079624;28;45319;-76
2023/07/14 07:37:54;;;;;;;;;8.67;8.67;;;;;;;;5082445;27;46295;-76
2023/07/14 07:40:20;;;;;;;;;5.33;4.67;;;;;;;;5063135;28;45738;-75
2023/07/14 07:42:45;;;;;;;;;7.67;7.00;;;;;;;;5060173;28;45576;-75
2023/07/14 07:45:11;;;;;;;;;7.33;7.33;;;;;;;;5059677;28;46077;-76
2023/07/14 07:47:36;;;;;;;;;5.00;5.00;;;;;;;;5077917;27;46240;-76
2023/07/14 07:50:01;;;;;;;;;6.33;5.00;;;;;;;;5079715;28;45366;-77
2023/07/14 07:52:26;;;;;;;;;8.00;7.00;;;;;;;;5079953;27;45309;-75
2023/07/14 07:54:51;;;;;;;;;7.00;6.00;;;;;;;;5078079;27;45781;-76
2023/07/14 07:57:17;;;;;;;;;5.67;5.67;;;;;;;;5088466;27;45440;-76
2023/07/14 07:59:42;;;;;;;;;5.67;5.67;;;;;;;;5098313;27;45402;-76
2023/07/14 08:02:07;;;;;;;;;6.00;6.00;;;;;;;;5060982;28;45384;-75
2023/07/14 08:04:33;;;;;;;;;8.33;8.33;;;;;;;;5059990;28;46225;-75
2023/07/14 08:06:59;;;;;;;;;7.00;7.00;;;;;;;;5061357;28;45751;-76
2023/07/14 08:09:24;;;;;;;;;6.00;6.00;;;;;;;;5060083;28;45332;-76
2023/07/14 08:11:53;;;;;;;;;6.00;5.67;;;;;;;;5079595;27;45422;-78
2023/07/14 08:14:19;;;;;;;;;7.00;7.00;;;;;;;;5060435;28;47340;-76
2023/07/14 08:16:44;;;;;;;;;5.33;5.33;;;;;;;;5062700;28;47109;-77
2023/07/14 08:19:10;;;;;;;;;7.67;7.00;;;;;;;;5066459;28;45517;-76
2023/07/14 08:21:37;;;;;;;;;7.00;7.00;;;;;;;;5084066;28;45486;-75
2023/07/14 08:24:03;;;;;;;;;6.00;5.00;;;;;;;;5079556;28;45480;-76
2023/07/14 08:26:28;;;;;;;;;7.00;7.00;;;;;;;;5080308;28;45252;-76
2023/07/14 08:28:53;;;;;;;;;5.00;5.00;;;;;;;;5066914;27;45929;-76
2023/07/14 08:31:18;;;;;;;;;7.00;6.67;;;;;;;;5084368;27;45272;-76
2023/07/14 08:33:44;;;;;;;;;6.33;6.33;;;;;;;;5100351;27;45470;-75
2023/07/14 08:36:11;;;;;;;;;7.67;6.00;;;;;;;;5101737;27;45829;-75
2023/07/14 08:38:37;;;;;;;;;6.00;5.33;;;;;;;;5101652;27;45280;-75
2023/07/14 08:41:05;;;;;;;;;7.00;6.67;;;;;;;;5101168;27;45411;-75
2023/07/14 08:43:41;;;;;;;;;8.00;8.00;;;;;;;;5101144;27;45265;-75
2023/07/14 08:46:07;;;;;;;;;7.33;5.00;;;;;;;;5103396;27;45627;-75
2023/07/14 08:48:41;;;;;;;;;10.25;7.25;;;;;;;;5103930;27;45389;-75
2023/07/14 08:51:18;;;;;;;;;7.67;7.67;;;;;;;;5086416;27;45355;-75
2023/07/14 08:53:57;;;;;;;;;8.67;7.67;;;;;;;;5103204;27;45508;-76
2023/07/14 08:56:23;;;;;;;;;7.67;7.00;;;;;;;;5084822;27;48460;-76
2023/07/14 08:58:50;;;;;;;;;6.00;6.00;;;;;;;;5103247;27;45400;-75
2023/07/14 09:01:38;;;;;;;;;6.67;6.00;;;;;;;;5102856;27;45322;-75
2023/07/14 09:04:16;;;;;;;;;6.00;6.00;;;;;;;;5077292;27;45532;-77
2023/07/14 09:06:41;;;;;;;;;6.00;6.00;;;;;;;;5102846;27;45324;-76
2023/07/14 09:09:24;;;;;;;;;6.33;6.33;;;;;;;;5102839;27;45195;-77
2023/07/14 09:12:05;;;;;;;;;5.00;5.00;;;;;;;;5103202;27;45355;-76
2023/07/14 09:14:39;;;;;;;;;6.00;6.00;;;;;;;;5084462;27;47445;-76
2023/07/14 09:17:28;;;;;;;;;6.00;6.00;;;;;;;;5103115;27;45380;-79
2023/07/14 09:20:06;;;;;;;;;4.33;4.00;;;;;;;;5103148;27;45333;-76
2023/07/14 09:22:36;;;;;;;;;5.00;5.00;;;;;;;;5102771;27;45281;-77
2023/07/14 09:25:25;;;;;;;;;5.67;4.67;;;;;;;;5093124;27;45547;-76
2023/07/14 09:27:50;;;;;;;;;6.67;6.67;;;;;;;;5049960;28;48652;-76
2023/07/14 09:30:26;;;;;;;;;6.00;5.67;;;;;;;;5079852;27;45270;-78
2023/07/14 09:32:53;;;;;;;;;7.00;5.67;;;;;;;;5081903;28;45218;-79
2023/07/14 09:35:20;;;;;;;;;5.67;5.67;;;;;;;;5061161;28;45695;-77
2023/07/14 09:38:05;;;;;;;;;6.67;6.00;;;;;;;;5043299;28;48116;-78
2023/07/14 09:40:31;;;;;;;;;5.00;5.00;;;;;;;;5079366;28;45375;-77
2023/07/14 09:42:57;;;;;;;;;5.67;4.00;;;;;;;;5081850;28;45388;-77
2023/07/14 09:45:33;;;;;;;;;6.33;4.67;;;;;;;;5081536;28;45556;-76
2023/07/14 09:48:10;;;;;;;;;5.00;5.00;;;;;;;;5081354;28;45503;-76
2023/07/14 09:50:37;;;;;;;;;1.33;1.33;;;;;;;;5082060;28;45443;-76
2023/07/14 09:53:09;;;;;;;;;2.00;2.00;;;;;;;;5081719;28;45290;-77
2023/07/14 09:55:48;;;;;;;;;5.00;5.00;;;;;;;;5081182;28;45322;-75
2023/07/14 09:58:15;;;;;;;;;3.00;2.33;;;;;;;;5081321;28;45427;-76
2023/07/14 10:00:40;;;;;;;;;0.00;0.00;;;;;;;;5081627;28;45357;-78
2023/07/14 10:03:07;;;;;;;;;4.00;4.00;;;;;;;;5063177;28;45269;-78
2023/07/14 10:05:41;;;;;;;;;3.75;3.50;;;;;;;;5081291;28;45547;-77
2023/07/14 10:08:22;;;;;;;;;5.67;5.67;;;;;;;;5081239;28;45340;-77
2023/07/14 10:10:47;;;;;;;;;3.67;3.00;;;;;;;;5063300;28;45237;-79
2023/07/14 10:13:19;;;;;;;;;5.00;4.33;;;;;;;;5063020;28;45436;-79
2023/07/14 10:15:53;;;;;;;;;5.00;3.67;;;;;;;;5083456;28;45243;-76
2023/07/14 10:18:18;;;;;;;;;3.75;3.75;;;;;;;;5062736;28;47418;-79
2023/07/14 10:21:06;;;;;;;;;4.00;4.00;;;;;;;;5081397;28;45296;-77
2023/07/14 10:23:31;;;;;;;;;3.00;3.00;;;;;;;;5081548;28;45291;-79
2023/07/14 10:25:56;;;;;;;;;5.00;4.33;;;;;;;;5063220;28;46246;-77
2023/07/14 10:28:28;;;;;;;;;5.33;4.00;;;;;;;;5063171;27;47215;-76
2023/07/14 10:30:57;;;;;;;;;5.00;5.00;;;;;;;;5101653;27;45440;-79
2023/07/14 10:33:29;;;;;;;;;5.33;5.00;;;;;;;;5083181;27;45388;-77
2023/07/14 10:36:09;;;;;;;;;4.33;4.00;;;;;;;;5057240;28;46052;-77
2023/07/14 10:38:39;;;;;;;;;6.33;6.00;;;;;;;;5060435;28;46293;-77
2023/07/14 10:41:07;;;;;;;;;11.00;10.33;;;;;;;;5077054;27;45668;-77
2023/07/14 10:43:44;;;;;;;;;4.00;4.00;;;;;;;;5079958;28;45279;-77
2023/07/14 10:46:18;;;;;;;;;5.67;3.00;;;;;;;;5060105;28;46057;-76
2023/07/14 10:48:48;;;;;;;;;5.00;4.00;;;;;;;;5060851;28;47146;-77
2023/07/14 10:51:20;;;;;;;;;4.67;4.00;;;;;;;;5077116;28;45359;-78
2023/07/14 10:54:01;;;;;;;;;3.00;3.00;;;;;;;;5079024;28;45327;-75
2023/07/14 10:56:29;;;;;;;;;4.00;3.75;;;;;;;;5068338;28;45892;-79
2023/07/14 10:58:58;;;;;;;;;5.00;5.00;;;;;;;;5081618;27;45568;-77
2023/07/14 11:01:33;;;;;;;;;4.33;3.00;;;;;;;;5079123;28;46373;-76
2023/07/14 11:04:08;;;;;;;;;4.67;4.67;;;;;;;;5069678;27;45362;-75
2023/07/14 11:06:34;;;;;;;;;3.00;3.00;;;;;;;;5099538;27;45341;-75
2023/07/14 11:08:59;;;;;;;;;3.00;3.00;;;;;;;;5079802;27;45275;-75
2023/07/14 11:11:27;;;;;;;;;4.33;4.33;;;;;;;;5061580;28;45308;-75
2023/07/14 11:14:12;;;;;;;;;3.67;3.67;;;;;;;;5062908;28;45472;-76
2023/07/14 11:16:57;;;;;;;;;4.00;4.00;;;;;;;;5084562;28;45217;-77
2023/07/14 11:19:36;;;;;;;;;3.67;3.67;;;;;;;;5089616;27;45306;-78
2023/07/14 11:22:05;;;;;;;;;4.00;3.00;;;;;;;;5072229;28;45358;-77
2023/07/14 11:24:34;;;;;;;;;4.33;4.00;;;;;;;;5072058;28;45330;-76
2023/07/14 11:27:00;;;;;;;;;4.00;4.00;;;;;;;;5084241;28;45489;-78
2023/07/14 11:29:27;;;;;;;;;4.00;3.00;;;;;;;;5076048;27;47752;-78
2023/07/14 11:31:54;;;;;;;;;3.00;3.00;;;;;;;;5064237;28;45372;-78
2023/07/14 11:34:38;;;;;;;;;4.33;4.00;;;;;;;;5077728;27;45642;-78
2023/07/14 11:37:31;;;;;;;;;6.00;4.33;;;;;;;;5085043;28;45622;-77
2023/07/14 11:40:00;;;;;;;;;3.00;3.00;;;;;;;;5085342;27;45182;-79
2023/07/14 11:42:27;;;;;;;;;2.00;2.00;;;;;;;;5086261;28;45291;-78
2023/07/14 11:44:53;;;;;;;;;4.00;4.00;;;;;;;;5084203;27;45422;-77
2023/07/14 11:47:21;;;;;;;;;2.00;2.00;;;;;;;;5089580;28;45715;-78
2023/07/14 11:49:50;;;;;;;;;3.00;1.50;;;;;;;;5065292;28;47259;-77
2023/07/14 11:52:23;;;;;;;;;4.00;4.00;;;;;;;;5082350;28;45377;-79
2023/07/14 11:55:00;;;;;;;;;4.00;4.00;;;;;;;;5081604;27;45433;-78
2023/07/14 11:57:27;;;;;;;;;4.00;4.00;;;;;;;;5065813;28;46642;-77
2023/07/14 11:59:58;;;;;;;;;3.25;3.25;;;;;;;;5085241;27;46204;-77
2023/07/14 12:02:23;;;;;;;;;4.00;4.00;;;;;;;;5067768;28;45256;-78
2023/07/14 12:04:59;;;;;;;;;4.00;4.00;;;;;;;;5097205;27;45632;-78
2023/07/14 12:07:25;;;;;;;;;0.25;0.25;;;;;;;;5105210;27;45293;-77
2023/07/14 12:09:57;;;;;;;;;4.33;3.33;;;;;;;;5075087;28;46882;-77
2023/07/14 12:12:23;;;;;;;;;4.00;4.00;;;;;;;;5080539;28;45366;-78
2023/07/14 12:14:49;;;;;;;;;5.00;3.67;;;;;;;;5082819;27;45296;-78
2023/07/14 12:17:32;;;;;;;;;4.75;4.00;;;;;;;;5080373;28;45331;-79
2023/07/14 12:20:03;;;;;;;;;5.75;4.75;;;;;;;;5063429;28;48229;-78
2023/07/14 12:22:36;;;;;;;;;4.00;4.00;;;;;;;;5068812;28;45804;-79
2023/07/14 12:25:09;;;;;;;;;4.00;3.25;;;;;;;;5066200;28;45381;-78
2023/07/14 12:27:34;;;;;;;;;5.00;5.00;;;;;;;;5083787;28;45362;-78
2023/07/14 12:30:05;;;;;;;;;4.75;4.75;;;;;;;;5061683;28;47247;-77
2023/07/14 12:32:30;;;;;;;;;4.50;3.00;;;;;;;;5082665;28;45378;-78
2023/07/14 12:34:55;;;;;;;;;3.67;3.67;;;;;;;;5087142;27;45364;-78
2023/07/14 12:37:22;;;;;;;;;3.75;2.75;;;;;;;;5094555;27;45507;-77
2023/07/14 12:39:49;;;;;;;;;4.00;3.67;;;;;;;;5083146;27;46254;-78
2023/07/14 12:42:14;;;;;;;;;4.00;3.67;;;;;;;;5064066;28;45328;-78
2023/07/14 12:44:39;;;;;;;;;3.00;3.00;;;;;;;;5083926;27;45371;-78
2023/07/14 12:47:07;;;;;;;;;5.00;3.00;;;;;;;;5084181;28;45244;-75
2023/07/14 12:49:38;;;;;;;;;2.00;2.00;;;;;;;;5083134;27;45477;-78
2023/07/14 12:52:04;;;;;;;;;4.50;2.75;;;;;;;;5082383;28;45274;-78
2023/07/14 12:54:30;;;;;;;;;3.00;3.00;;;;;;;;5094493;27;45324;-80
2023/07/14 12:56:58;;;;;;;;;4.33;4.33;;;;;;;;5096800;27;45302;-79
2023/07/14 12:59:23;;;;;;;;;5.67;4.33;;;;;;;;5066154;28;47108;-79
2023/07/14 13:01:50;;;;;;;;;5.50;4.00;;;;;;;;5079910;28;45689;-78
2023/07/14 13:04:16;;;;;;;;;4.50;4.50;;;;;;;;5064000;28;45375;-78
2023/07/14 13:06:42;;;;;;;;;4.25;2.50;;;;;;;;5050695;28;46110;-77
2023/07/14 13:09:37;;;;;;;;;4.00;4.00;;;;;;;;5064921;28;47302;-75
2023/07/14 13:12:03;;;;;;;;;4.00;4.00;;;;;;;;5061195;28;45230;-74
2023/07/14 13:14:36;;;;;;;;;3.67;3.67;;;;;;;;5064633;28;45273;-75
2023/07/14 13:17:03;;;;;;;;;3.50;3.50;;;;;;;;5085169;28;45609;-74
2023/07/14 13:19:33;;;;;;;;;4.00;4.00;;;;;;;;5081983;28;45397;-75
2023/07/14 13:22:00;;;;;;;;;4.00;4.00;;;;;;;;5065242;28;45340;-79
2023/07/14 13:24:26;;;;;;;;;3.67;3.67;;;;;;;;5084382;28;45209;-75
2023/07/14 13:26:53;;;;;;;;;3.67;3.67;;;;;;;;5085051;28;45429;-74
2023/07/14 13:29:23;;;;;;;;;2.25;2.25;;;;;;;;5080434;27;46165;-76
2023/07/14 13:31:51;;;;;;;;;4.33;4.33;;;;;;;;5049063;28;45324;-75
2023/07/14 13:34:20;;;;;;;;;4.00;4.00;;;;;;;;5046094;28;45450;-76
2023/07/14 13:36:45;;;;;;;;;3.67;3.33;;;;;;;;5072538;28;45307;-75
2023/07/14 13:39:18;;;;;;;;;4.33;3.67;;;;;;;;5063620;28;47430;-75
2023/07/14 13:41:45;;;;;;;;;3.00;3.00;;;;;;;;5082154;28;45381;-75
2023/07/14 13:44:29;;;;;;;;;3.00;3.00;;;;;;;;5082540;28;45252;-75
2023/07/14 13:46:54;;;;;;;;;1.75;1.75;;;;;;;;5082750;28;45291;-74
2023/07/14 13:49:20;;;;;;;;;2.50;2.50;;;;;;;;5053022;28;47270;-76
2023/07/14 13:51:45;;;;;;;;;3.50;3.00;;;;;;;;5089729;28;45255;-75
2023/07/14 13:54:15;;;;;;;;;4.00;4.00;;;;;;;;5086486;28;45284;-74
2023/07/14 13:56:40;;;;;;;;;3.00;3.00;;;;;;;;5073451;28;45350;-75
2023/07/14 13:59:10;;;;;;;;;3.50;3.50;;;;;;;;5082424;28;46085;-75
2023/07/14 14:01:38;;;;;;;;;2.67;2.67;;;;;;;;5069038;28;46009;-75
2023/07/14 14:04:03;;;;;;;;;3.00;3.00;;;;;;;;5085944;28;45433;-75
2023/07/14 14:06:29;;;;;;;;;3.00;3.00;;;;;;;;5059931;28;47635;-75
2023/07/14 14:08:54;;;;;;;;;1.75;1.75;;;;;;;;5061536;28;47109;-75
2023/07/14 14:11:20;;;;;;;;;3.75;3.00;;;;;;;;5085627;28;45408;-75
2023/07/14 14:13:45;;;;;;;;;1.75;1.75;;;;;;;;5087255;28;45552;-75
2023/07/14 14:16:15;;;;;;;;;4.00;4.00;;;;;;;;5086565;28;45438;-75
2023/07/14 14:18:40;;;;;;;;;2.50;2.50;;;;;;;;5083540;28;47130;-75
2023/07/14 14:21:08;;;;;;;;;2.50;2.00;;;;;;;;5063855;28;45291;-76
2023/07/14 14:23:33;;;;;;;;;2.75;2.75;;;;;;;;5066520;28;45430;-75
2023/07/14 14:25:58;;;;;;;;;4.00;4.00;;;;;;;;5085381;28;45302;-76
2023/07/14 14:28:23;;;;;;;;;3.00;3.00;;;;;;;;5073066;27;45555;-75
2023/07/14 14:30:50;;;;;;;;;3.00;2.67;;;;;;;;5098758;27;45311;-75
2023/07/14 14:33:20;;;;;;;;;2.33;2.33;;;;;;;;5077161;28;45338;-75
2023/07/14 14:35:45;;;;;;;;;2.75;2.00;;;;;;;;5086642;28;45287;-74
2023/07/14 14:38:31;;;;;;;;;3.00;3.00;;;;;;;;5081089;28;45129;-75